Pine River, Wisconsin
Current Conditions -  °F | °C
As of 12:56 PM on Thursday 27 Nov 2014 (Local Time) from KY50 Reporting Station
Few Clouds Few Clouds  
Wind Chill:   Ceiling: Unl
Heat Index: 16°   Visibility: 10mi
Dew Point:   Wind: 8mph
Humidity: 68%   Direction: 300°WNW
Pressure: 30.37"   Gusts: NA
Location:  44.15°N, 89.08°W
Report Text: KY50 271856Z AUTO 30007KT 10SM FEW020 M09/M14 A3037 RMK AO2 TSNO T10881138 SLP295
Loading
Personal Weather Stations






























Interactive Weather Map New forecast layout! Learn more

10-Day Weather Forecast

Advertisements
Track Severe Weather on mobile